Time;durP1;ratioP1;P1;durP2;ratioP2;P2;SDS_P1;SDS_P2;PMS_P1;PMS_P2;Temp;Humidity;BMP_temperature;BMP_pressure;BME280_temperature;BME280_humidity;BME280_pressure;Samples;Min_cycle;Max_cycle;Signal;HPM_P1;HPM_P2
2022/10/25 00:00:39;;;;;;;46.60;18.98;;;;;;;13.04;68.33;95711.09;5018206;28;20038;-76
2022/10/25 00:03:10;;;;;;;43.78;17.63;;;;;;;13.16;68.03;95726.75;5010199;28;20045;-76
2022/10/25 00:05:37;;;;;;;45.42;18.95;;;;;;;13.02;67.92;95707.91;5037219;28;20038;-77
2022/10/25 00:08:03;;;;;;;49.67;18.67;;;;;;;13.16;68.07;95729.41;5037316;28;20079;-77
2022/10/25 00:10:28;;;;;;;51.35;18.35;;;;;;;12.90;68.23;95686.94;5037259;28;20037;-77
2022/10/25 00:12:54;;;;;;;49.13;18.15;;;;;;;12.71;68.34;95656.72;5019235;28;20048;-77
2022/10/25 00:15:22;;;;;;;43.30;17.17;;;;;;;13.23;68.25;95730.72;5015470;28;20118;-77
2022/10/25 00:17:47;;;;;;;62.20;18.92;;;;;;;12.90;68.25;95670.97;5003080;28;20041;-77
2022/10/25 00:20:13;;;;;;;50.88;18.10;;;;;;;13.26;68.06;95724.84;4999061;28;20442;-77
2022/10/25 00:22:39;;;;;;;48.25;18.50;;;;;;;13.28;68.14;95730.66;5015493;28;20053;-77
2022/10/25 00:25:08;;;;;;;52.53;17.20;;;;;;;13.09;68.40;95730.50;4998585;28;20049;-76
2022/10/25 00:27:34;;;;;;;48.83;18.27;;;;;;;12.89;68.33;95689.91;4998984;28;20277;-76
2022/10/25 00:30:00;;;;;;;48.53;17.77;;;;;;;12.99;68.45;95719.09;5017202;28;20772;-76
2022/10/25 00:32:26;;;;;;;43.28;16.20;;;;;;;12.55;67.97;95647.22;5017696;28;20072;-77
2022/10/25 00:34:51;;;;;;;47.40;17.50;;;;;;;12.85;68.05;95689.63;5017121;28;20041;-77
2022/10/25 00:37:18;;;;;;;50.95;18.13;;;;;;;12.69;68.06;95661.50;5016890;28;20041;-77
2022/10/25 00:39:44;;;;;;;50.05;18.80;;;;;;;12.85;68.46;95686.16;5017078;28;20114;-76
2022/10/25 00:42:18;;;;;;;48.85;18.17;;;;;;;12.75;68.01;95674.50;4997810;28;21077;-77
2022/10/25 00:44:49;;;;;;;48.25;16.48;;;;;;;12.57;68.18;95642.44;5029481;28;20726;-77
2022/10/25 00:47:20;;;;;;;50.88;17.67;;;;;;;13.05;68.18;95721.44;5036026;28;20063;-77
2022/10/25 00:49:52;;;;;;;44.85;16.92;;;;;;;12.62;67.86;95658.34;5036302;28;20048;-76
2022/10/25 00:52:18;;;;;;;45.72;17.33;;;;;;;12.93;68.61;95712.22;5017645;28;20186;-76
2022/10/25 00:54:50;;;;;;;50.25;18.25;;;;;;;12.85;68.60;95699.47;5005725;28;20037;-76
2022/10/25 00:57:34;;;;;;;53.50;17.17;;;;;;;12.80;68.87;95689.66;5017413;28;20037;-76
2022/10/25 01:00:00;;;;;;;44.30;17.38;;;;;;;12.67;68.73;95675.09;5036398;28;20037;-77
2022/10/25 01:02:26;;;;;;;43.90;16.30;;;;;;;12.71;68.64;95670.81;5034460;28;20045;-77
2022/10/25 01:04:52;;;;;;;64.95;18.35;;;;;;;12.94;68.80;95708.50;5036264;28;20037;-77
2022/10/25 01:07:18;;;;;;;41.05;16.25;;;;;;;12.59;68.73;95661.56;5018288;28;20051;-77
2022/10/25 01:09:43;;;;;;;55.45;18.75;;;;;;;12.65;68.88;95671.13;5036822;28;20045;-77
2022/10/25 01:12:09;;;;;;;55.05;18.33;;;;;;;12.66;68.67;95664.72;5017597;28;20434;-77
2022/10/25 01:14:37;;;;;;;41.60;18.23;;;;;;;12.87;69.00;95705.34;5036615;28;20041;-77
2022/10/25 01:17:10;;;;;;;49.60;17.85;;;;;;;12.90;68.88;95700.25;5036952;28;20151;-77
2022/10/25 01:19:54;;;;;;;57.03;19.38;;;;;;;12.92;68.52;95705.28;5037083;28;20075;-77
2022/10/25 01:22:35;;;;;;;42.53;18.08;;;;;;;12.13;68.43;95584.63;5035966;28;20045;-76
2022/10/25 01:25:18;;;;;;;46.42;17.30;;;;;;;12.84;68.62;95706.66;5017102;28;20330;-76
2022/10/25 01:28:01;;;;;;;39.20;16.33;;;;;;;12.62;68.37;95663.69;5017466;28;20083;-76
2022/10/25 01:30:58;;;;;;;52.25;17.60;;;;;;;12.87;68.68;95706.13;5035872;28;20534;-76
2022/10/25 01:33:23;;;;;;;50.45;18.10;;;;;;;12.83;68.84;95705.06;5017246;28;20088;-76
2022/10/25 01:36:13;;;;;;;42.80;17.42;;;;;;;12.87;68.71;95706.13;5036001;28;20044;-76
2022/10/25 01:38:43;;;;;;;45.80;18.08;;;;;;;12.66;68.81;95668.16;5036598;28;20161;-76
2022/10/25 01:41:26;;;;;;;42.92;16.70;;;;;;;12.73;68.87;95697.97;5036584;28;20041;-76
2022/10/25 01:44:31;;;;;;;54.08;17.58;;;;;;;12.68;69.00;95684.66;5036496;28;20041;-76
2022/10/25 01:47:20;;;;;;;48.75;16.88;;;;;;;12.68;68.81;95692.66;4993749;28;20053;-75
2022/10/25 01:49:56;;;;;;;41.63;17.88;;;;;;;12.68;68.99;95692.66;5035704;28;20126;-76
2022/10/25 01:52:23;;;;;;;45.30;16.65;;;;;;;12.69;69.12;95693.44;5036091;28;20045;-76
2022/10/25 01:54:50;;;;;;;45.03;16.23;;;;;;;12.70;69.11;95690.50;5035532;28;20726;-76
2022/10/25 01:57:40;;;;;;;53.13;16.38;;;;;;;12.70;68.91;95695.84;5033680;28;20148;-76
2022/10/25 02:00:17;;;;;;;41.17;17.17;;;;;;;12.37;68.83;95633.47;5022991;28;20619;-77
2022/10/25 02:02:54;;;;;;;49.58;17.85;;;;;;;12.69;68.80;95691.56;4997688;28;20080;-76
2022/10/25 02:05:29;;;;;;;39.42;17.52;;;;;;;12.30;68.47;95629.50;5015952;28;20080;-77
2022/10/25 02:08:20;;;;;;;38.58;17.45;;;;;;;12.65;68.63;95692.41;5014480;28;20122;-77
2022/10/25 02:11:04;;;;;;;39.08;16.67;;;;;;;12.61;68.76;95689.47;5018099;28;20163;-77
2022/10/25 02:13:35;;;;;;;52.17;16.92;;;;;;;12.62;68.82;95684.97;5001078;28;20140;-75
2022/10/25 02:16:24;;;;;;;48.13;17.55;;;;;;;12.59;68.78;95688.16;5001572;28;20045;-76
2022/10/25 02:18:55;;;;;;;49.42;17.23;;;;;;;12.42;68.73;95653.13;5018928;28;20495;-76
2022/10/25 02:21:23;;;;;;;42.13;17.05;;;;;;;12.36;68.65;95647.81;5017054;28;20080;-77
2022/10/25 02:23:49;;;;;;;47.97;16.35;;;;;;;12.28;68.75;95644.97;5018982;28;20052;-76
2022/10/25 02:26:17;;;;;;;39.55;17.45;;;;;;;12.48;68.79;95686.63;5019387;28;20049;-77
2022/10/25 02:28:43;;;;;;;48.33;17.10;;;;;;;12.32;68.64;95660.09;5018821;28;20128;-77
2022/10/25 02:31:13;;;;;;;42.25;16.80;;;;;;;12.39;68.83;95683.72;5019571;28;20488;-77
2022/10/25 02:33:42;;;;;;;;;;;;;;;12.40;68.84;95689.84;5014440;28;20056;-77
2022/10/25 02:36:11;;;;;;;44.20;16.30;;;;;;;12.29;68.99;95673.91;5038970;28;20023;-77
2022/10/25 02:38:37;;;;;;;45.85;16.85;;;;;;;12.21;68.73;95661.19;5020559;28;20129;-77
2022/10/25 02:41:04;;;;;;;52.45;16.13;;;;;;;12.21;69.05;95663.03;5021015;28;20132;-77
2022/10/25 02:43:30;;;;;;;41.78;16.17;;;;;;;12.30;68.84;95680.84;5039675;28;20542;-77
2022/10/25 02:45:56;;;;;;;50.17;16.42;;;;;;;12.32;69.01;95686.69;5018561;28;20052;-77
2022/10/25 02:48:21;;;;;;;47.03;16.35;;;;;;;12.23;69.05;95680.34;5038305;28;20483;-76
2022/10/25 02:50:47;;;;;;;39.50;16.13;;;;;;;12.27;69.06;95684.06;5020670;28;20862;-76
2022/10/25 02:53:13;;;;;;;45.70;16.58;;;;;;;12.09;68.93;95646.63;5036670;28;20067;-76
2022/10/25 02:55:38;;;;;;;47.97;16.88;;;;;;;11.92;69.30;95625.66;5020181;28;20422;-77
2022/10/25 02:58:04;;;;;;;44.67;16.92;;;;;;;12.15;69.11;95653.50;5038423;28;20056;-77
2022/10/25 03:00:29;;;;;;;47.38;17.17;;;;;;;12.32;69.02;95677.91;5039012;28;20432;-77
2022/10/25 03:02:54;;;;;;;52.95;16.10;;;;;;;12.08;68.68;95634.38;5038665;28;20051;-77
2022/10/25 03:05:20;;;;;;;43.70;16.52;;;;;;;12.05;68.85;95629.63;5036972;28;20070;-77
2022/10/25 03:07:45;;;;;;;50.05;16.38;;;;;;;11.40;68.89;95530.41;5039046;28;20790;-77
2022/10/25 03:10:11;;;;;;;49.10;17.55;;;;;;;12.17;68.81;95667.31;5020296;28;20503;-77
2022/10/25 03:12:36;;;;;;;39.28;15.75;;;;;;;12.20;69.07;95678.22;5038963;28;20113;-76
2022/10/25 03:15:02;;;;;;;57.35;17.10;;;;;;;11.81;69.04;95616.13;5038809;28;20063;-77
2022/10/25 03:17:27;;;;;;;41.92;15.38;;;;;;;11.99;69.26;95652.75;5038448;28;20534;-77
2022/10/25 03:19:52;;;;;;;43.20;16.27;;;;;;;11.98;69.29;95651.16;5020171;28;20045;-77
2022/10/25 03:22:18;;;;;;;45.20;17.30;;;;;;;11.76;69.09;95627.56;5038007;28;20060;-76
2022/10/25 03:24:43;;;;;;;42.35;16.50;;;;;;;11.86;68.89;95648.00;5021776;28;20049;-76
2022/10/25 03:27:09;;;;;;;53.17;17.10;;;;;;;11.94;69.37;95658.09;5018425;28;20068;-77
2022/10/25 03:29:34;;;;;;;47.80;17.90;;;;;;;12.07;69.26;95675.31;5036077;28;20103;-77
2022/10/25 03:31:59;;;;;;;48.08;18.20;;;;;;;11.91;69.84;95679.88;5037010;28;20491;-77
2022/10/25 03:34:25;;;;;;;46.15;17.17;;;;;;;11.83;70.15;95661.81;5038506;28;20045;-76
2022/10/25 03:36:51;;;;;;;49.90;17.98;;;;;;;11.81;69.81;95653.34;5038085;28;20049;-76
2022/10/25 03:39:16;;;;;;;40.97;16.75;;;;;;;11.70;69.64;95641.09;5036320;28;20045;-77
2022/10/25 03:41:42;;;;;;;48.55;18.13;;;;;;;11.66;69.54;95640.06;5037831;28;20071;-77
2022/10/25 03:44:07;;;;;;;44.92;18.08;;;;;;;11.72;69.89;95641.63;5037888;28;20057;-77
2022/10/25 03:46:33;;;;;;;38.20;17.08;;;;;;;11.63;69.78;95641.38;5019253;28;20504;-77
2022/10/25 03:48:58;;;;;;;51.03;16.23;;;;;;;11.55;69.56;95615.34;5037309;28;20053;-76
2022/10/25 03:51:24;;;;;;;63.47;17.42;;;;;;;11.74;69.80;95642.16;5036996;28;20090;-76
2022/10/25 03:53:49;;;;;;;48.55;18.48;;;;;;;11.51;69.75;95615.13;5025969;28;20049;-77
2022/10/25 03:56:15;;;;;;;40.70;16.38;;;;;;;11.64;69.93;95626.25;5016425;28;20041;-77
2022/10/25 03:58:40;;;;;;;48.25;16.63;;;;;;;11.58;69.60;95618.28;5016900;28;20041;-77
2022/10/25 04:01:09;;;;;;;39.33;15.60;;;;;;;11.46;69.95;95601.03;5014776;28;20045;-76
2022/10/25 04:03:34;;;;;;;51.83;17.90;;;;;;;11.86;69.91;95669.25;5036235;28;20025;-76
2022/10/25 04:06:00;;;;;;;45.33;15.82;;;;;;;11.63;69.87;95629.94;5018361;28;20091;-76
2022/10/25 04:08:25;;;;;;;41.05;16.27;;;;;;;11.53;69.53;95610.31;5005593;28;20068;-76
2022/10/25 04:10:51;;;;;;;43.58;17.20;;;;;;;11.83;69.87;95661.81;5005887;28;20095;-76
2022/10/25 04:13:16;;;;;;;44.03;18.00;;;;;;;11.49;70.02;95609.28;4997685;28;20508;-76
2022/10/25 04:15:41;;;;;;;64.13;19.65;;;;;;;11.11;69.64;95541.63;4984620;28;20041;-76
2022/10/25 04:18:07;;;;;;;52.83;20.02;;;;;;;11.45;69.34;95592.25;4995466;28;20048;-76
2022/10/25 04:20:32;;;;;;;51.67;18.00;;;;;;;11.36;69.76;95582.47;5000887;28;20030;-76
2022/10/25 04:22:58;;;;;;;44.88;18.23;;;;;;;11.51;69.56;95609.00;4997807;28;20059;-77
2022/10/25 04:25:26;;;;;;;49.88;19.52;;;;;;;11.86;69.72;95671.94;4998061;28;20557;-76
2022/10/25 04:27:51;;;;;;;67.25;23.23;;;;;;;11.67;70.39;95646.97;5004921;28;20049;-76
2022/10/25 04:30:18;;;;;;;77.82;24.17;;;;;;;11.36;69.98;95593.88;4997395;28;20045;-76
2022/10/25 04:32:43;;;;;;;65.15;23.48;;;;;;;11.88;70.03;95675.91;4998483;28;20034;-76
2022/10/25 04:35:09;;;;;;;60.63;22.58;;;;;;;11.42;70.34;95624.69;4985673;28;21668;-76
2022/10/25 04:37:35;;;;;;;62.03;22.52;;;;;;;11.85;70.54;95691.59;4990785;28;20831;-77
2022/10/25 04:40:00;;;;;;;54.03;22.50;;;;;;;11.58;70.09;95633.44;4982629;28;21294;-76
2022/10/25 04:42:25;;;;;;;70.65;27.55;;;;;;;11.54;70.12;95637.66;4985610;28;20124;-77
2022/10/25 04:44:51;;;;;;;63.42;26.23;;;;;;;11.57;70.94;95669.81;4988833;28;20071;-78
2022/10/25 04:47:16;;;;;;;71.63;28.83;;;;;;;11.37;70.81;95635.28;4992002;28;20112;-76
2022/10/25 04:49:42;;;;;;;62.92;24.40;;;;;;;11.32;70.70;95626.53;4995820;28;20928;-76
2022/10/25 04:52:07;;;;;;;66.10;23.92;;;;;;;11.62;70.58;95669.00;4998172;28;20617;-77
2022/10/25 04:54:33;;;;;;;59.15;24.33;;;;;;;11.66;70.43;95675.41;4990007;28;20494;-77
2022/10/25 04:56:59;;;;;;;54.85;22.25;;;;;;;11.31;70.47;95620.44;4987011;28;20053;-77
2022/10/25 04:59:24;;;;;;;57.33;23.42;;;;;;;11.22;70.37;95612.19;4992724;28;20144;-77
2022/10/25 05:01:50;;;;;;;59.08;23.42;;;;;;;11.43;70.40;95647.53;4992268;28;20500;-77
2022/10/25 05:04:15;;;;;;;66.82;24.20;;;;;;;11.41;70.54;95649.66;4983291;28;20056;-76
2022/10/25 05:06:41;;;;;;;60.53;23.25;;;;;;;11.35;70.55;95637.44;4995919;28;20052;-77
2022/10/25 05:09:06;;;;;;;62.17;24.75;;;;;;;11.64;70.58;95690.78;4994379;28;20035;-79
2022/10/25 05:11:31;;;;;;;58.78;23.55;;;;;;;11.43;70.61;95660.00;4993187;28;20077;-78
2022/10/25 05:13:57;;;;;;;69.30;23.45;;;;;;;11.43;70.27;95647.53;4970021;28;20116;-79
2022/10/25 05:16:23;;;;;;;71.93;22.95;;;;;;;11.38;70.09;95644.06;4984236;28;20042;-79
2022/10/25 05:18:53;;;;;;;71.35;23.88;;;;;;;11.59;70.52;95683.59;4990517;28;20046;-77
2022/10/25 05:21:19;;;;;;;72.38;24.38;;;;;;;11.56;70.44;95683.38;4979623;28;20111;-77
2022/10/25 05:23:45;;;;;;;70.45;24.70;;;;;;;11.47;70.65;95663.72;4991819;28;20050;-77
2022/10/25 05:26:17;;;;;;;75.88;24.17;;;;;;;11.32;70.58;95637.16;5005375;28;20534;-77
2022/10/25 05:28:46;;;;;;;66.95;24.83;;;;;;;11.68;70.92;95694.50;4985442;28;20041;-78
2022/10/25 05:31:13;;;;;;;60.35;23.33;;;;;;;11.74;70.65;95704.13;4997546;28;20444;-77
2022/10/25 05:33:38;;;;;;;65.10;24.80;;;;;;;11.63;70.56;95688.41;4992674;28;20041;-77
2022/10/25 05:36:06;;;;;;;80.15;24.45;;;;;;;11.54;70.69;95675.66;4997960;28;20525;-78
2022/10/25 05:38:32;;;;;;;86.82;27.45;;;;;;;11.08;70.31;95611.16;5005542;28;20055;-78
2022/10/25 05:40:59;;;;;;;75.47;25.30;;;;;;;11.73;70.19;95714.97;5004485;28;20097;-79
2022/10/25 05:43:25;;;;;;;78.03;26.75;;;;;;;11.47;70.45;95663.72;5000553;28;20545;-80
2022/10/25 05:45:51;;;;;;;80.43;26.42;;;;;;;11.77;70.48;95727.47;5007150;28;20049;-77
2022/10/25 05:48:17;;;;;;;75.15;26.35;;;;;;;11.42;70.64;95682.31;5007850;28;20037;-77
2022/10/25 05:50:43;;;;;;;81.03;26.30;;;;;;;11.45;70.64;95677.25;4986051;28;20119;-78
2022/10/25 05:53:10;;;;;;;91.38;26.45;;;;;;;11.67;70.58;95716.84;5003633;28;21051;-77
2022/10/25 05:55:35;;;;;;;71.50;24.33;;;;;;;11.92;70.02;95739.94;5004800;28;20044;-77
2022/10/25 05:58:02;;;;;;;74.20;24.85;;;;;;;11.53;69.96;95695.31;5003605;28;20413;-79
2022/10/25 06:00:27;;;;;;;80.65;27.00;;;;;;;12.01;69.28;95756.16;4989295;28;20720;-78
2022/10/25 06:02:53;;;;;;;67.85;25.20;;;;;;;11.39;69.44;95673.00;5008101;28;20166;-80
2022/10/25 06:05:20;;;;;;;76.13;24.48;;;;;;;11.49;68.84;95680.19;5009493;28;20041;-84
2022/10/25 06:07:46;;;;;;;87.78;26.33;;;;;;;11.84;68.73;95749.25;5000174;28;20165;-81
2022/10/25 06:10:11;;;;;;;70.35;24.63;;;;;;;12.03;68.91;95754.84;4987279;28;20119;-80
2022/10/25 06:12:37;;;;;;;67.03;24.65;;;;;;;12.11;68.44;95761.47;4973508;28;20111;-78
2022/10/25 06:15:02;;;;;;;64.57;24.00;;;;;;;12.08;68.46;95762.78;5006293;28;20126;-78
2022/10/25 06:17:28;;;;;;;68.88;26.30;;;;;;;11.69;68.49;95689.97;5008231;28;20402;-78
2022/10/25 06:19:53;;;;;;;87.90;28.45;;;;;;;12.24;68.10;95753.72;4995123;28;20052;-79
2022/10/25 06:22:19;;;;;;;76.28;29.17;;;;;;;12.23;68.23;95754.78;5004006;28;20146;-78
2022/10/25 06:24:44;;;;;;;69.00;26.35;;;;;;;12.29;68.12;95755.56;4995214;28;20056;-79
2022/10/25 06:27:09;;;;;;;69.20;28.50;;;;;;;12.08;68.17;95709.63;5010960;28;20042;-78
2022/10/25 06:29:35;;;;;;;67.53;25.40;;;;;;;11.99;68.41;95689.97;5011083;28;20890;-78
2022/10/25 06:32:02;;;;;;;63.85;25.63;;;;;;;12.29;68.91;95731.63;4990438;28;20082;-78
2022/10/25 06:34:28;;;;;;;63.85;25.90;;;;;;;12.13;68.87;95693.66;4994171;28;20133;-78
2022/10/25 06:36:53;;;;;;;70.50;24.08;;;;;;;12.55;68.85;95754.44;4990292;28;20053;-78
2022/10/25 06:39:18;;;;;;;77.93;26.30;;;;;;;12.23;68.91;95704.25;5004323;28;20882;-78
2022/10/25 06:41:44;;;;;;;67.57;26.00;;;;;;;12.34;68.83;95724.44;4989566;28;20127;-77
2022/10/25 06:44:09;;;;;;;71.20;24.88;;;;;;;12.25;68.75;95710.13;5003514;28;20048;-78
2022/10/25 06:46:37;;;;;;;64.63;24.73;;;;;;;12.41;68.80;95747.31;5007336;28;20427;-78
2022/10/25 06:49:04;;;;;;;75.70;26.60;;;;;;;12.50;68.75;95769.63;5000649;28;20089;-78
2022/10/25 06:51:45;;;;;;;60.70;24.83;;;;;;;12.41;68.26;95729.47;4985672;28;20680;-79
2022/10/25 06:54:11;;;;;;;68.82;24.73;;;;;;;12.68;68.32;95761.84;4995818;28;20135;-80
2022/10/25 06:56:36;;;;;;;77.07;24.35;;;;;;;12.30;67.91;95686.16;5004824;28;20871;-76
2022/10/25 06:59:05;;;;;;;69.30;24.88;;;;;;;12.85;67.63;95764.16;5011360;28;20473;-82
2022/10/25 07:01:31;;;;;;;83.78;23.55;;;;;;;12.93;67.29;95758.28;4990271;28;20099;-84
2022/10/25 07:03:58;;;;;;;70.03;21.80;;;;;;;12.80;66.83;95728.81;5005954;28;20583;-79
2022/10/25 07:06:27;;;;;;;69.88;23.40;;;;;;;13.10;66.71;95752.59;5013339;28;20041;-77
2022/10/25 07:08:59;;;;;;;65.88;23.83;;;;;;;13.12;66.69;95745.91;4984078;28;20081;-76
2022/10/25 07:11:26;;;;;;;71.35;25.00;;;;;;;13.15;66.86;95749.94;4999998;28;20074;-76
2022/10/25 07:13:51;;;;;;;78.90;26.17;;;;;;;12.98;66.71;95730.81;4979154;28;20590;-76
2022/10/25 07:16:19;;;;;;;72.28;26.70;;;;;;;13.08;66.68;95744.88;5008770;28;20045;-76
2022/10/25 07:18:45;;;;;;;69.43;25.50;;;;;;;13.07;66.23;95721.19;4988165;28;20478;-76
2022/10/25 07:21:12;;;;;;;71.47;26.75;;;;;;;12.97;66.14;95687.41;5009531;28;20049;-76
2022/10/25 07:23:41;;;;;;;64.68;26.17;;;;;;;12.99;66.12;95690.59;4991243;28;20667;-77
2022/10/25 07:26:12;;;;;;;82.15;27.55;;;;;;;13.28;66.04;95719.22;5004859;28;20052;-76
2022/10/25 07:28:38;;;;;;;69.22;27.92;;;;;;;13.43;66.06;95732.41;5005560;28;20025;-77
2022/10/25 07:31:04;;;;;;;77.00;27.38;;;;;;;12.85;66.47;95660.34;5003665;28;20127;-76
2022/10/25 07:33:30;;;;;;;68.60;27.50;;;;;;;13.42;66.17;95722.88;5008896;28;20041;-76
2022/10/25 07:35:56;;;;;;;64.20;26.00;;;;;;;13.20;66.02;95690.53;5003367;28;20045;-77
2022/10/25 07:38:21;;;;;;;71.90;25.58;;;;;;;13.11;65.63;95680.44;5008300;28;20072;-77
2022/10/25 07:40:46;;;;;;;65.30;25.65;;;;;;;13.12;65.47;95666.03;5002990;28;20083;-77
2022/10/25 07:43:12;;;;;;;78.85;26.63;;;;;;;13.46;65.23;95711.38;5004788;28;20483;-79
2022/10/25 07:45:40;;;;;;;75.78;27.20;;;;;;;13.61;65.48;95750.41;5008713;28;20132;-79
2022/10/25 07:48:06;;;;;;;63.85;24.77;;;;;;;13.44;65.32;95704.72;4995194;28;20048;-79
2022/10/25 07:50:31;;;;;;;62.45;25.15;;;;;;;13.28;65.31;95680.06;4998916;28;20045;-78
2022/10/25 07:52:57;;;;;;;66.75;24.38;;;;;;;13.72;65.03;95729.81;4986121;28;20131;-83
2022/10/25 07:55:23;;;;;;;75.07;23.25;;;;;;;13.72;64.70;95711.97;5005936;28;20140;-79
2022/10/25 07:57:49;;;;;;;63.28;22.52;;;;;;;13.81;64.74;95699.59;4980882;28;20130;-79
2022/10/25 08:00:15;;;;;;;60.50;23.20;;;;;;;13.66;64.72;95662.41;4981714;28;20073;-77
2022/10/25 08:02:41;;;;;;;64.88;21.20;;;;;;;13.61;64.33;95649.16;4998729;28;20099;-76
2022/10/25 08:05:08;;;;;;;58.63;23.20;;;;;;;13.78;64.25;95668.19;5000378;28;20037;-77
2022/10/25 08:07:34;;;;;;;65.68;23.80;;;;;;;14.18;64.23;95720.34;5004823;28;20619;-76
2022/10/25 08:09:59;;;;;;;70.95;23.95;;;;;;;14.03;63.95;95693.03;5002432;28;20044;-79
2022/10/25 08:12:25;;;;;;;76.07;21.38;;;;;;;13.97;63.83;95664.78;4985648;28;20564;-78
2022/10/25 08:14:50;;;;;;;58.45;22.13;;;;;;;14.40;63.44;95719.06;5003573;28;20494;-78
2022/10/25 08:17:16;;;;;;;57.15;22.48;;;;;;;13.79;63.25;95627.13;4986743;28;20411;-78
2022/10/25 08:19:42;;;;;;;58.53;19.60;;;;;;;14.27;63.11;95693.81;4996874;28;20160;-79
2022/10/25 08:22:07;;;;;;;58.40;21.42;;;;;;;14.47;63.04;95701.63;5003703;28;20168;-79
2022/10/25 08:24:34;;;;;;;67.28;24.52;;;;;;;14.40;62.70;95676.38;5002154;28;20957;-76
2022/10/25 08:27:00;;;;;;;66.35;22.23;;;;;;;14.43;62.41;95679.25;5007963;28;20037;-78
2022/10/25 08:29:26;;;;;;;62.85;23.10;;;;;;;14.33;62.11;95650.00;4994149;28;20048;-78
2022/10/25 08:31:51;;;;;;;60.15;21.52;;;;;;;14.81;62.00;95703.34;5005556;28;20041;-78
2022/10/25 08:34:17;;;;;;;73.38;20.75;;;;;;;14.76;61.48;95682.03;4985223;28;20079;-78
2022/10/25 08:36:42;;;;;;;56.50;18.23;;;;;;;14.98;61.28;95696.44;4988985;28;20041;-77
2022/10/25 08:39:07;;;;;;;65.95;18.90;;;;;;;15.04;61.65;95699.81;4988610;28;20034;-78
2022/10/25 08:41:50;;;;;;;58.75;18.05;;;;;;;15.11;60.86;95692.22;5002107;28;20137;-80
2022/10/25 08:44:37;;;;;;;57.47;16.77;;;;;;;15.12;60.72;95685.81;4994846;28;20053;-80
2022/10/25 08:47:11;;;;;;;49.17;15.70;;;;;;;15.22;60.36;95693.69;4981532;28;20041;-77
2022/10/25 08:49:56;;;;;;;50.75;17.52;;;;;;;15.31;60.02;95694.63;4989773;28;20755;-83
2022/10/25 08:52:32;;;;;;;64.65;17.50;;;;;;;15.36;59.66;95667.03;5005422;28;20156;-79
2022/10/25 08:55:00;;;;;;;50.53;17.48;;;;;;;15.44;59.75;95674.38;5002751;28;20045;-78
2022/10/25 08:57:32;;;;;;;55.80;16.52;;;;;;;15.33;59.45;95646.25;5005668;28;20041;-79
2022/10/25 09:00:09;;;;;;;56.63;14.63;;;;;;;15.64;58.86;95675.97;4986754;28;20098;-78
2022/10/25 09:03:00;;;;;;;49.63;14.95;;;;;;;15.50;58.66;95643.00;5007333;28;20139;-79
2022/10/25 09:05:56;;;;;;;51.53;12.30;;;;;;;15.80;57.95;95672.72;5003091;28;20152;-78
2022/10/25 09:08:57;;;;;;;35.42;12.43;;;;;;;15.89;57.88;95664.81;4985309;28;20042;-79
2022/10/25 09:12:07;;;;;;;43.33;12.67;;;;;;;15.90;57.16;95668.28;5006081;28;20052;-78
2022/10/25 09:14:57;;;;;;;43.97;10.55;;;;;;;15.48;56.30;95605.09;4977756;28;20306;-78
2022/10/25 09:17:33;;;;;;;36.03;9.90;;;;;;;15.87;55.88;95658.19;5001434;28;20102;-81
2022/10/25 09:20:06;;;;;;;46.60;11.38;;;;;;;16.06;55.57;95670.41;4996722;28;20079;-77
2022/10/25 09:23:04;;;;;;;45.38;12.18;;;;;;;16.20;56.25;95668.53;4991863;28;20050;-78
2022/10/25 09:25:51;;;;;;;67.05;16.02;;;;;;;16.31;56.61;95668.34;4988178;28;20103;-78
2022/10/25 09:28:32;;;;;;;59.42;14.35;;;;;;;16.35;56.35;95667.44;4988812;28;20092;-80
2022/10/25 09:31:00;;;;;;;54.77;14.67;;;;;;;16.28;55.76;95632.25;4990971;28;20054;-76
2022/10/25 09:33:29;;;;;;;49.65;13.20;;;;;;;16.48;56.02;95652.44;4981886;28;20791;-76
2022/10/25 09:35:57;;;;;;;48.22;14.75;;;;;;;16.32;55.34;95608.38;4975814;28;20147;-75
2022/10/25 09:38:37;;;;;;;59.25;14.80;;;;;;;16.66;55.68;95638.19;5002175;28;20431;-76
2022/10/25 09:41:09;;;;;;;44.28;14.18;;;;;;;16.51;54.95;95604.47;4985769;28;20554;-76
2022/10/25 09:43:37;;;;;;;;;;;;;;;16.90;54.90;95641.41;4989830;28;20551;-77
2022/10/25 09:46:18;;;;;;;52.33;15.27;;;;;;;16.79;54.44;95605.22;4985531;28;20036;-76
2022/10/25 09:48:57;;;;;;;49.33;14.00;;;;;;;16.95;54.75;95613.72;4987214;28;20595;-76
2022/10/25 09:51:42;;;;;;;48.92;13.20;;;;;;;17.43;54.59;95597.81;4984138;28;20098;-78
2022/10/25 09:54:23;;;;;;;44.40;13.15;;;;;;;18.58;52.01;95621.91;4987396;28;20129;-77
2022/10/25 09:56:48;;;;;;;54.90;14.73;;;;;;;19.40;49.31;95587.91;4984397;28;20077;-77
2022/10/25 09:59:14;;;;;;;56.25;13.70;;;;;;;19.77;46.04;95522.63;4988020;28;20258;-76
2022/10/25 10:01:41;;;;;;;55.80;13.20;;;;;;;20.12;44.10;95428.25;4985823;28;20045;-76
2022/10/25 10:04:34;;;;;;;48.30;14.43;;;;;;;20.12;44.10;95428.25;4992157;28;20042;-76
2022/10/25 10:07:19;;;;;;;54.58;14.05;;;;;;;23.17;40.27;95617.47;4978849;28;20058;-77
2022/10/25 10:09:45;;;;;;;41.40;13.45;;;;;;;23.51;39.09;95586.34;4986737;28;20045;-78
2022/10/25 10:12:25;;;;;;;48.38;13.02;;;;;;;24.26;37.93;95604.56;4999791;28;20452;-77
2022/10/25 10:15:07;;;;;;;37.40;12.73;;;;;;;24.40;36.57;95558.81;4993274;28;20046;-77
2022/10/25 10:17:32;;;;;;;48.45;14.02;;;;;;;24.75;36.47;95566.94;4984578;28;20148;-79
2022/10/25 10:20:16;;;;;;;53.97;13.57;;;;;;;24.88;36.00;95593.59;4983861;28;20234;-79
2022/10/25 10:22:48;;;;;;;43.60;11.68;;;;;;;24.49;35.91;95505.16;4990054;28;20639;-78
2022/10/25 10:25:28;;;;;;;54.03;13.98;;;;;;;25.04;35.97;95587.34;5001098;28;20104;-79
2022/10/25 10:27:56;;;;;;;53.80;13.57;;;;;;;24.65;35.94;95530.31;4995800;28;20042;-78
2022/10/25 10:30:28;;;;;;;49.35;12.95;;;;;;;24.82;35.90;95584.16;4997832;28;20057;-78
2022/10/25 10:32:57;;;;;;;62.30;12.82;;;;;;;24.39;36.02;95532.84;5003004;28;20060;-78
2022/10/25 10:35:36;;;;;;;55.10;13.93;;;;;;;24.53;35.86;95566.47;4987406;28;20049;-77
2022/10/25 10:38:28;;;;;;;42.40;12.45;;;;;;;24.12;36.91;95516.31;4996538;28;20495;-77
2022/10/25 10:41:12;;;;;;;47.97;14.07;;;;;;;24.03;37.06;95498.69;5000765;28;20053;-77
2022/10/25 10:43:38;;;;;;;39.22;11.77;;;;;;;24.11;36.89;95508.53;5001325;28;20045;-77
2022/10/25 10:46:09;;;;;;;44.60;11.95;;;;;;;24.02;36.46;95543.16;5002740;28;20426;-78
2022/10/25 10:48:38;;;;;;;;;;;;;;;23.95;36.39;95551.13;5012115;28;20128;-78
2022/10/25 10:51:04;;;;;;;44.33;10.90;;;;;;;23.68;36.28;95474.22;5001968;28;20039;-78
2022/10/25 10:53:31;;;;;;;45.28;12.38;;;;;;;23.83;36.41;95497.81;4994886;28;20138;-78
2022/10/25 10:56:03;;;;;;;50.85;11.90;;;;;;;24.00;36.63;95545.44;4985487;28;20037;-78
2022/10/25 10:58:38;;;;;;;43.22;11.80;;;;;;;23.89;36.70;95536.25;5000208;28;20572;-79
2022/10/25 11:01:13;;;;;;;53.75;12.77;;;;;;;23.58;36.37;95489.06;4993528;28;20273;-79
2022/10/25 11:03:42;;;;;;;45.45;11.60;;;;;;;23.98;35.71;95534.16;4986422;28;20118;-81
2022/10/25 11:06:17;;;;;;;47.08;11.68;;;;;;;23.98;35.80;95532.22;4998807;28;20053;-78
2022/10/25 11:08:45;;;;;;;60.78;12.25;;;;;;;23.96;36.22;95525.56;5000994;28;20045;-78
2022/10/25 11:11:18;;;;;;;41.97;10.98;;;;;;;24.09;35.97;95521.66;4985405;28;20079;-79
2022/10/25 11:13:59;;;;;;;48.15;11.65;;;;;;;23.90;35.78;95503.41;4991165;28;20511;-78
2022/10/25 11:16:34;;;;;;;41.20;10.02;;;;;;;23.62;35.51;95464.78;5010466;28;20052;-79
2022/10/25 11:19:09;;;;;;;33.88;9.80;;;;;;;24.20;35.92;95515.38;4989023;28;20048;-79
2022/10/25 11:21:43;;;;;;;47.78;11.80;;;;;;;24.17;35.50;95464.56;5000358;28;20049;-78
2022/10/25 11:24:38;;;;;;;40.53;11.85;;;;;;;24.70;34.92;95510.28;5003797;28;20056;-77
2022/10/25 11:27:28;;;;;;;47.72;11.82;;;;;;;24.91;34.92;95508.03;5009969;28;20103;-78
2022/10/25 11:30:13;;;;;;;53.13;12.40;;;;;;;25.00;34.24;95486.91;4998126;28;20064;-77
2022/10/25 11:32:46;;;;;;;58.97;12.52;;;;;;;25.08;34.04;95493.25;4985498;28;20048;-77